createdAt,value
2022-11-15T00:03:24.847Z,993.34
2022-11-15T00:08:22.735Z,993.31
2022-11-15T00:13:22.519Z,993.16
2022-11-15T00:18:22.408Z,993.12
2022-11-15T00:23:23.442Z,993.16
2022-11-15T00:28:22.263Z,993.18
2022-11-15T00:33:22.235Z,993.14
2022-11-15T00:38:22.209Z,993.13
2022-11-15T00:43:22.303Z,993.04
2022-11-15T00:48:22.232Z,993.20
2022-11-15T00:53:22.134Z,993.21
2022-11-15T00:58:22.038Z,993.14
2022-11-15T01:03:22.064Z,993.10
2022-11-15T01:08:22.117Z,993.18
2022-11-15T01:13:21.832Z,993.25
2022-11-15T01:18:21.798Z,993.24
2022-11-15T01:23:21.746Z,993.19
2022-11-15T01:28:21.767Z,993.12
2022-11-15T01:33:21.759Z,993.02
2022-11-15T01:38:21.598Z,992.94
2022-11-15T01:43:22.554Z,992.88
2022-11-15T01:48:21.396Z,992.89
2022-11-15T01:53:21.339Z,992.92
2022-11-15T01:58:21.269Z,992.92
2022-11-15T02:03:21.251Z,992.83
2022-11-15T02:08:21.372Z,992.81
2022-11-15T02:13:22.289Z,992.89
2022-11-15T02:18:21.163Z,992.77
2022-11-15T02:23:21.192Z,992.67
2022-11-15T02:28:21.101Z,992.66
2022-11-15T02:33:20.879Z,992.71
2022-11-15T02:38:20.892Z,992.70
2022-11-15T02:43:20.865Z,992.67
2022-11-15T02:48:20.767Z,992.57
2022-11-15T02:53:20.745Z,992.49
2022-11-15T02:58:20.693Z,992.47
2022-11-15T03:03:20.716Z,992.56
2022-11-15T03:08:20.583Z,992.54
2022-11-15T03:13:20.495Z,992.53
2022-11-15T03:18:20.448Z,992.55
2022-11-15T03:23:20.348Z,992.54
2022-11-15T03:28:20.309Z,992.60
2022-11-15T03:33:20.394Z,992.55
2022-11-15T03:38:20.370Z,992.48
2022-11-15T03:43:29.315Z,992.45
2022-11-15T03:48:20.065Z,992.45
2022-11-15T03:53:20.032Z,992.40
2022-11-15T03:58:20.073Z,992.35
2022-11-15T04:03:19.874Z,992.32
2022-11-15T04:08:19.853Z,992.32
2022-11-15T04:13:19.762Z,992.25
2022-11-15T04:18:19.855Z,992.30
2022-11-15T04:23:19.772Z,992.24
2022-11-15T04:28:19.722Z,992.28
2022-11-15T04:33:19.686Z,992.28
2022-11-15T04:38:20.503Z,992.22
2022-11-15T04:43:20.576Z,992.22
2022-11-15T04:48:19.410Z,992.22
2022-11-15T04:53:19.483Z,992.26
2022-11-15T04:58:19.343Z,992.24
2022-11-15T05:03:19.298Z,992.21
2022-11-15T05:08:19.233Z,992.08
2022-11-15T05:13:19.130Z,992.15
2022-11-15T05:18:23.280Z,992.22
2022-11-15T05:23:24.542Z,992.26
2022-11-15T05:28:18.928Z,992.22
2022-11-15T05:33:18.909Z,992.14
2022-11-15T05:38:18.930Z,992.08
2022-11-15T05:43:18.775Z,992.11
2022-11-15T05:48:18.755Z,992.13
2022-11-15T05:53:18.868Z,992.06
2022-11-15T05:58:18.670Z,992.03
2022-11-15T06:03:18.698Z,992.04
2022-11-15T06:08:18.654Z,992.08
2022-11-15T06:13:18.482Z,992.15
2022-11-15T06:18:18.389Z,992.16
2022-11-15T06:23:18.452Z,992.29
2022-11-15T06:28:18.313Z,992.35
2022-11-15T06:33:18.334Z,992.36
2022-11-15T06:38:18.181Z,992.33
2022-11-15T06:43:18.216Z,992.31
2022-11-15T06:48:18.244Z,992.33
2022-11-15T06:53:18.117Z,992.47
2022-11-15T06:58:18.212Z,992.54
2022-11-15T07:03:18.129Z,992.55
2022-11-15T07:08:18.942Z,992.63
2022-11-15T07:13:17.840Z,992.65
2022-11-15T07:18:17.897Z,992.68
2022-11-15T07:23:17.898Z,992.79
2022-11-15T07:28:17.635Z,992.83
2022-11-15T07:33:17.660Z,992.87
2022-11-15T07:38:17.621Z,992.93
2022-11-15T07:43:17.497Z,993.01
2022-11-15T07:48:17.464Z,993.01
2022-11-15T07:53:18.376Z,992.98
2022-11-15T07:58:17.464Z,993.03
2022-11-15T08:03:17.404Z,993.00
2022-11-15T08:08:17.266Z,993.04
2022-11-15T08:13:18.250Z,992.99
2022-11-15T08:18:17.117Z,992.97
2022-11-15T08:23:17.034Z,993.00
2022-11-15T08:28:16.980Z,992.89
2022-11-15T08:33:16.995Z,992.97
2022-11-15T08:38:16.918Z,992.93
2022-11-15T08:43:16.902Z,992.88
2022-11-15T08:48:16.783Z,992.93
2022-11-15T08:53:16.689Z,992.82
2022-11-15T08:58:16.628Z,992.89
2022-11-15T09:03:16.585Z,992.75
2022-11-15T09:08:40.715Z,992.69
2022-11-15T09:13:17.504Z,992.61
2022-11-15T09:18:16.461Z,992.54
2022-11-15T09:23:16.403Z,992.56
2022-11-15T09:28:31.541Z,992.56
2022-11-15T09:33:16.317Z,992.49
2022-11-15T09:38:16.185Z,992.49
2022-11-15T09:43:16.244Z,992.46
2022-11-15T09:48:17.096Z,992.36
2022-11-15T09:53:16.106Z,992.37
2022-11-15T09:58:16.053Z,992.25
2022-11-15T10:03:15.896Z,992.17
2022-11-15T10:08:15.835Z,992.00
2022-11-15T10:13:15.778Z,991.91
2022-11-15T10:18:15.817Z,991.86
2022-11-15T10:23:15.692Z,991.80
2022-11-15T10:28:15.625Z,991.72
2022-11-15T10:33:15.663Z,991.60
2022-11-15T10:38:15.496Z,991.60
2022-11-15T10:43:15.515Z,991.57
2022-11-15T10:48:15.431Z,991.40
2022-11-15T10:53:15.365Z,991.37
2022-11-15T11:00:39.475Z,991.29
2022-11-15T11:05:42.172Z,991.14
2022-11-15T11:11:00.046Z,991.18
2022-11-15T11:15:40.469Z,991.14
2022-11-15T11:20:39.340Z,991.16
2022-11-15T11:25:39.266Z,990.99
2022-11-15T11:30:48.189Z,990.85
2022-11-15T11:35:39.128Z,990.77
2022-11-15T11:40:39.100Z,990.56
2022-11-15T11:45:41.251Z,990.64
2022-11-15T11:50:38.941Z,990.63
2022-11-15T11:55:39.012Z,990.59
2022-11-15T12:00:38.875Z,990.52
2022-11-15T12:05:38.788Z,990.55
2022-11-15T12:10:38.893Z,990.58
2022-11-15T12:15:38.664Z,990.57
2022-11-15T12:20:38.636Z,990.67
2022-11-15T12:25:38.559Z,990.67
2022-11-15T12:30:38.477Z,990.61
2022-11-15T12:35:38.612Z,990.50
2022-11-15T12:40:39.534Z,990.37
2022-11-15T12:45:38.450Z,990.20
2022-11-15T12:50:38.352Z,990.10
2022-11-15T12:55:38.283Z,990.07
2022-11-15T13:00:38.243Z,989.97
2022-11-15T13:05:38.130Z,989.92
2022-11-15T13:10:38.107Z,989.76
2022-11-15T13:15:42.500Z,989.75
2022-11-15T13:20:38.980Z,989.68
2022-11-15T13:25:38.149Z,989.62
2022-11-15T13:30:39.060Z,989.58
2022-11-15T13:35:37.881Z,989.53
2022-11-15T13:40:37.693Z,989.42
2022-11-15T13:45:37.700Z,989.36
2022-11-15T13:50:46.599Z,989.44
2022-11-15T13:55:37.555Z,989.40
2022-11-15T14:00:37.617Z,989.26
2022-11-15T14:05:37.438Z,989.17
2022-11-15T14:10:37.419Z,989.10
2022-11-15T14:15:37.412Z,988.99
2022-11-15T14:20:37.412Z,988.89
2022-11-15T14:25:37.315Z,988.76
2022-11-15T14:30:37.240Z,988.65
2022-11-15T14:35:37.179Z,988.60
2022-11-15T14:40:37.086Z,988.45
2022-11-15T14:45:36.982Z,988.46
2022-11-15T14:50:37.017Z,988.34
2022-11-15T14:55:36.889Z,988.34
2022-11-15T15:00:37.024Z,988.25
2022-11-15T15:05:36.780Z,988.20
2022-11-15T15:10:41.496Z,988.14
2022-11-15T15:15:37.684Z,988.03
2022-11-15T15:20:36.588Z,987.92
2022-11-15T15:25:36.574Z,987.81
2022-11-15T15:30:36.516Z,987.74
2022-11-15T15:35:39.835Z,987.67
2022-11-15T15:40:36.540Z,987.63
2022-11-15T15:45:36.376Z,987.69
2022-11-15T15:50:36.279Z,987.59
2022-11-15T15:55:36.208Z,987.65
2022-11-15T16:00:36.217Z,987.54
2022-11-15T16:05:36.247Z,987.41
2022-11-15T16:10:36.115Z,987.36
2022-11-15T16:15:36.092Z,987.28
2022-11-15T16:20:36.038Z,987.31
2022-11-15T16:25:35.883Z,987.31
2022-11-15T16:30:35.859Z,987.22
2022-11-15T16:35:35.758Z,987.23
2022-11-15T16:40:35.779Z,987.15
2022-11-15T16:45:35.686Z,987.10
2022-11-15T16:50:35.629Z,987.11
2022-11-15T16:55:35.611Z,987.03
2022-11-15T17:00:35.548Z,987.03
2022-11-15T17:05:35.481Z,987.03
2022-11-15T17:10:35.396Z,986.99
2022-11-15T17:15:35.321Z,986.94
2022-11-15T17:20:35.379Z,986.96
2022-11-15T17:25:35.346Z,986.92
2022-11-15T17:30:35.202Z,986.87
2022-11-15T17:35:35.159Z,986.89
2022-11-15T17:40:35.075Z,986.82
2022-11-15T17:45:34.990Z,986.84
2022-11-15T17:50:37.021Z,986.85
2022-11-15T17:55:35.001Z,986.92
2022-11-15T18:00:35.959Z,986.92
2022-11-15T18:05:34.908Z,986.87
2022-11-15T18:10:34.927Z,986.89
2022-11-15T18:15:34.723Z,986.83
2022-11-15T18:20:34.719Z,986.90
2022-11-15T18:25:43.512Z,986.76
2022-11-15T18:30:34.544Z,986.70
2022-11-15T18:35:34.482Z,986.65
2022-11-15T18:40:34.494Z,986.54
2022-11-15T18:45:34.377Z,986.50
2022-11-15T18:50:34.290Z,986.38
2022-11-15T18:55:34.249Z,986.40
2022-11-15T19:00:34.206Z,986.34
2022-11-15T19:05:34.193Z,986.38
2022-11-15T19:10:34.101Z,986.23
2022-11-15T19:15:34.035Z,986.24
2022-11-15T19:20:34.144Z,986.22
2022-11-15T19:25:33.936Z,986.14
2022-11-15T19:30:33.955Z,986.13
2022-11-15T19:35:33.854Z,986.08
2022-11-15T19:40:33.858Z,986.15
2022-11-15T19:45:33.782Z,986.16
2022-11-15T19:50:33.762Z,986.13
2022-11-15T19:55:34.775Z,986.08
2022-11-15T20:00:33.512Z,986.10
2022-11-15T20:05:33.622Z,986.04
2022-11-15T20:10:33.591Z,985.98
2022-11-15T20:15:33.545Z,985.93
2022-11-15T20:20:33.371Z,985.93
2022-11-15T20:25:33.381Z,985.94
2022-11-15T20:30:33.438Z,985.88
2022-11-15T20:35:33.323Z,985.89
2022-11-15T20:40:33.177Z,985.83
2022-11-15T20:45:33.144Z,985.82
2022-11-15T20:50:42.710Z,985.72
2022-11-15T20:55:33.999Z,985.70
2022-11-15T21:00:32.930Z,985.64
2022-11-15T21:05:32.846Z,985.60
2022-11-15T21:10:32.921Z,985.58
2022-11-15T21:15:32.785Z,985.52
2022-11-15T21:20:32.779Z,985.48
2022-11-15T21:25:32.762Z,985.47
2022-11-15T21:30:32.633Z,985.39
2022-11-15T21:35:32.567Z,985.39
2022-11-15T21:40:32.487Z,985.35
2022-11-15T21:45:32.346Z,985.35
2022-11-15T21:50:32.322Z,985.24
2022-11-15T21:55:32.336Z,985.20
2022-11-15T22:00:32.316Z,985.21
2022-11-15T22:05:32.151Z,985.15
2022-11-15T22:10:32.196Z,985.09
2022-11-15T22:15:31.994Z,985.07
2022-11-15T22:20:47.249Z,985.00
2022-11-15T22:25:32.890Z,984.93
2022-11-15T22:30:31.849Z,984.83
2022-11-15T22:35:31.800Z,984.76
2022-11-15T22:40:31.780Z,984.67
2022-11-15T22:45:31.793Z,984.66
2022-11-15T22:50:31.711Z,984.62
2022-11-15T22:55:31.693Z,984.58
2022-11-15T23:00:31.565Z,984.49
2022-11-15T23:05:31.451Z,984.45
2022-11-15T23:10:31.395Z,984.36
2022-11-15T23:15:33.387Z,984.35
2022-11-15T23:20:43.016Z,984.30
2022-11-15T23:25:32.335Z,984.24
2022-11-15T23:30:31.209Z,984.21
2022-11-15T23:35:31.155Z,984.18
2022-11-15T23:40:31.058Z,984.14
2022-11-15T23:45:31.016Z,984.11
2022-11-15T23:50:30.973Z,984.06
2022-11-15T23:55:30.901Z,984.04
